Time;durP1;ratioP1;P1;durP2;ratioP2;P2;SDS_P1;SDS_P2;PMS_P1;PMS_P2;Temp;Humidity;BMP_temperature;BMP_pressure;BME280_temperature;BME280_humidity;BME280_pressure;Samples;Min_cycle;Max_cycle;Signal;HPM_P1;HPM_P2
2023/04/22 00:06:55;;;;;;;;;;;;;;;9.71;87.82;100005.94;5073636;28;20387;-67
2023/04/22 00:09:59;;;;;;;;;;;;;;;9.68;88.11;100011.31;5073518;28;19950;-67
2023/04/22 00:13:02;;;;;;;;;;;;;;;9.66;88.06;100014.94;5073651;28;20025;-67
2023/04/22 00:16:05;;;;;;;;;;;;;;;9.66;88.28;100007.09;5073792;28;20367;-67
2023/04/22 00:19:08;;;;;;;;;;;;;;;9.61;88.42;100003.94;5073962;28;20396;-67
2023/04/22 00:22:12;;;;;;;;;;;;;;;9.55;88.93;100002.50;5075130;28;19928;-67
2023/04/22 00:25:15;;;;;;;;;;;;;;;9.61;88.70;100009.16;5075247;28;19923;-67
2023/04/22 00:28:18;;;;;;;;;;;;;;;9.58;88.62;100011.94;5075253;28;19970;-67
2023/04/22 00:31:21;;;;;;;;;;;;;;;9.60;88.53;100003.06;5075548;28;20033;-67
2023/04/22 00:34:23;;;;;;;;;;;;;;;9.61;88.45;100011.78;5062587;28;19927;-67
2023/04/22 00:37:27;;;;;;;;;;;;;;;9.62;88.42;100009.06;5075374;28;19923;-67
2023/04/22 00:40:29;;;;;;;;;;;;;;;9.67;88.01;100016.66;5062475;28;19927;-67
2023/04/22 00:43:32;;;;;;;;;;;;;;;9.65;87.25;100013.25;5075272;28;19924;-67
2023/04/22 00:46:36;;;;;;;;;;;;;;;9.61;87.29;100009.16;5062414;28;20047;-67
2023/04/22 00:49:39;;;;;;;;;;;;;;;9.58;87.37;100010.16;5074729;28;20011;-66
2023/04/22 00:52:42;;;;;;;;;;;;;;;9.60;87.36;100015.28;5074789;28;19923;-67
2023/04/22 00:55:45;;;;;;;;;;;;;;;9.61;88.15;100014.38;5074578;28;19928;-67
2023/04/22 00:58:49;;;;;;;;;;;;;;;9.53;88.90;100013.00;5074678;28;19990;-67
2023/04/22 01:01:52;;;;;;;;;;;;;;;9.55;88.88;100007.72;5074619;28;19967;-67
2023/04/22 01:04:55;;;;;;;;;;;;;;;9.63;88.56;100004.66;5074450;28;19924;-67
2023/04/22 01:07:58;;;;;;;;;;;;;;;9.64;88.11;100006.38;5061953;28;19922;-67
2023/04/22 01:11:02;;;;;;;;;;;;;;;9.58;88.40;100006.72;5074480;28;19927;-67
2023/04/22 01:14:11;;;;;;;;;;;;;;;9.58;88.37;100009.31;5074401;28;19970;-67
2023/04/22 01:17:24;;;;;;;;;;;;;;;9.57;88.07;100010.22;5051420;28;20286;-66
2023/04/22 01:20:31;;;;;;;;;;;;;;;9.55;88.20;100019.00;5074001;28;20455;-66
2023/04/22 01:23:33;;;;;;;;;;;;;;;9.52;88.63;100011.34;5061873;28;19928;-66
2023/04/22 01:26:36;;;;;;;;;;;;;;;9.57;88.48;100011.06;5061867;28;19924;-66
2023/04/22 01:29:39;;;;;;;;;;;;;;;9.56;88.10;100006.78;5061545;28;19928;-66
2023/04/22 01:32:42;;;;;;;;;;;;;;;9.53;87.75;100007.78;5073858;28;20398;-65
2023/04/22 01:35:45;;;;;;;;;;;;;;;9.50;87.93;100010.56;5073717;28;19923;-66
2023/04/22 01:38:48;;;;;;;;;;;;;;;9.51;87.66;100011.44;5061407;28;19939;-66
2023/04/22 01:41:52;;;;;;;;;;;;;;;9.44;87.63;100010.09;5061706;28;19965;-66
2023/04/22 01:44:55;;;;;;;;;;;;;;;9.48;87.74;100011.63;5073678;28;19928;-66
2023/04/22 01:47:58;;;;;;;;;;;;;;;9.43;87.81;100011.84;5061536;28;19969;-66
2023/04/22 01:51:02;;;;;;;;;;;;;;;9.43;87.51;100006.63;5073458;28;19939;-66
2023/04/22 01:54:05;;;;;;;;;;;;;;;9.42;87.50;100012.78;5073545;28;19970;-66
2023/04/22 01:57:10;;;;;;;;;;;;;;;9.40;87.70;100005.97;5073324;28;19932;-66
2023/04/22 02:00:13;;;;;;;;;;;;;;;9.38;87.74;100003.47;5073367;28;19946;-66
2023/04/22 02:03:16;;;;;;;;;;;;;;;9.39;87.60;100002.53;5073283;28;19924;-66
2023/04/22 02:06:19;;;;;;;;;;;;;;;9.35;87.66;100006.25;5073238;28;20451;-66
2023/04/22 02:09:22;;;;;;;;;;;;;;;9.36;87.33;99996.63;5060804;28;19924;-66
2023/04/22 02:12:25;;;;;;;;;;;;;;;9.37;86.94;100003.53;5073121;28;19927;-66
2023/04/22 02:15:29;;;;;;;;;;;;;;;9.26;86.78;99996.31;5073179;28;20058;-66
2023/04/22 02:18:32;;;;;;;;;;;;;;;9.20;86.75;100001.84;5073056;28;20408;-66
2023/04/22 02:21:35;;;;;;;;;;;;;;;9.23;86.60;99994.69;5072738;28;20363;-66
2023/04/22 02:24:40;;;;;;;;;;;;;;;9.20;86.74;99997.47;5060782;28;19970;-66
2023/04/22 02:27:42;;;;;;;;;;;;;;;9.14;87.04;99996.97;5073053;28;20000;-66
2023/04/22 02:30:46;;;;;;;;;;;;;;;9.13;87.50;99995.31;5072856;28;19969;-66
2023/04/22 02:33:49;;;;;;;;;;;;;;;9.16;87.70;99992.53;5072878;28;20057;-66
2023/04/22 02:36:52;;;;;;;;;;;;;;;9.19;87.58;99997.53;5072921;28;19961;-66
2023/04/22 02:39:55;;;;;;;;;;;;;;;9.19;87.49;99987.09;5060368;28;20367;-66
2023/04/22 02:42:59;;;;;;;;;;;;;;;9.19;87.34;99997.53;5072985;28;20013;-66
2023/04/22 02:46:04;;;;;;;;;;;;;;;9.16;87.34;100001.19;5060448;28;20291;-66
2023/04/22 02:49:07;;;;;;;;;;;;;;;9.17;87.46;100002.03;5060293;28;20425;-66
2023/04/22 02:52:11;;;;;;;;;;;;;;;9.15;87.52;99993.44;5072826;28;20061;-66
2023/04/22 02:55:14;;;;;;;;;;;;;;;9.15;87.36;99988.22;5060211;28;20032;-66
2023/04/22 02:58:17;;;;;;;;;;;;;;;9.11;87.93;99997.13;5060162;28;20007;-66
2023/04/22 03:01:20;;;;;;;;;;;;;;;9.11;87.88;99992.75;5060096;28;19927;-65
2023/04/22 03:04:24;;;;;;;;;;;;;;;9.09;87.59;99994.59;5060203;28;19944;-66
2023/04/22 03:07:27;;;;;;;;;;;;;;;9.07;87.63;99997.31;5060106;28;20391;-66
2023/04/22 03:10:31;;;;;;;;;;;;;;;9.00;88.11;99993.34;5060391;28;19924;-65
2023/04/22 03:13:34;;;;;;;;;;;;;;;8.98;88.29;99984.75;5060034;28;19925;-66
2023/04/22 03:16:37;;;;;;;;;;;;;;;9.02;87.99;99991.50;5060022;28;19924;-66
2023/04/22 03:19:41;;;;;;;;;;;;;;;9.00;88.08;99985.53;5059993;28;19924;-66
2023/04/22 03:22:45;;;;;;;;;;;;;;;9.01;87.96;99991.59;5059753;28;20372;-65
2023/04/22 03:25:50;;;;;;;;;;;;;;;8.99;88.13;99988.22;5048635;28;19923;-66
2023/04/22 03:28:54;;;;;;;;;;;;;;;9.01;87.65;99994.19;5059884;28;19923;-66
2023/04/22 03:31:57;;;;;;;;;;;;;;;9.00;87.41;99993.34;5060666;28;19958;-66
2023/04/22 03:35:00;;;;;;;;;;;;;;;8.93;87.66;99999.81;5076347;28;19924;-65
2023/04/22 03:38:04;;;;;;;;;;;;;;;8.91;87.89;100001.66;5063668;28;19924;-66
2023/04/22 03:41:10;;;;;;;;;;;;;;;8.90;88.04;100001.75;5063704;28;19974;-66
2023/04/22 03:44:17;;;;;;;;;;;;;;;8.86;88.54;99998.47;5063654;28;19989;-66
2023/04/22 03:47:21;;;;;;;;;;;;;;;8.87;88.36;99999.28;5063511;28;19924;-66
2023/04/22 03:50:30;;;;;;;;;;;;;;;8.88;88.08;99998.38;5063550;28;19942;-66
2023/04/22 03:53:35;;;;;;;;;;;;;;;8.82;88.69;99992.56;5063416;28;20004;-66
2023/04/22 03:56:40;;;;;;;;;;;;;;;8.80;88.65;99993.56;5075461;28;19931;-66
2023/04/22 03:59:43;;;;;;;;;;;;;;;8.81;88.41;99983.06;5061645;28;19943;-66
2023/04/22 04:02:48;;;;;;;;;;;;;;;8.87;88.06;99981.91;5062038;28;19978;-66
2023/04/22 04:05:53;;;;;;;;;;;;;;;8.84;88.42;99980.31;5062221;28;19927;-65
2023/04/22 04:08:58;;;;;;;;;;;;;;;8.82;88.88;99976.09;5074491;28;20292;-66
2023/04/22 04:12:02;;;;;;;;;;;;;;;8.84;88.87;99979.47;5061916;28;20435;-65
2023/04/22 04:15:10;;;;;;;;;;;;;;;8.85;88.75;99986.34;5063037;28;19973;-66
2023/04/22 04:18:14;;;;;;;;;;;;;;;8.81;89.04;99984.84;5063018;28;19938;-66
2023/04/22 04:21:17;;;;;;;;;;;;;;;8.73;88.89;99979.19;5062826;28;19935;-65
2023/04/22 04:24:24;;;;;;;;;;;;;;;8.74;89.19;99988.69;5062832;28;19931;-66
2023/04/22 04:27:33;;;;;;;;;;;;;;;8.72;89.08;99972.28;5062810;28;19966;-66
2023/04/22 04:30:37;;;;;;;;;;;;;;;8.71;89.23;99974.06;5062589;28;20265;-66
2023/04/22 04:33:40;;;;;;;;;;;;;;;8.75;88.92;99972.13;5062734;28;20054;-66
2023/04/22 04:36:45;;;;;;;;;;;;;;;8.73;89.14;99971.38;5062705;28;20022;-66
2023/04/22 04:40:33;;;;;;;;;;;;;;;8.80;88.69;99970.09;5062405;28;19946;-66
2023/04/22 04:43:45;;;;;;;;;;;;;;;8.76;88.78;99964.22;5061675;28;20019;-66
2023/04/22 04:46:58;;;;;;;;;;;;;;;8.75;88.32;99964.31;5061411;28;19924;-66
2023/04/22 04:50:04;;;;;;;;;;;;;;;8.74;87.95;99962.63;5062284;28;20003;-66
2023/04/22 04:53:09;;;;;;;;;;;;;;;8.74;88.05;99952.19;5062121;28;19962;-66
2023/04/22 04:56:16;;;;;;;;;;;;;;;8.70;88.13;99966.31;5062156;28;20307;-66
2023/04/22 04:59:46;;;;;;;;;;;;;;;8.68;88.25;99960.34;5062298;28;19962;-66
2023/04/22 05:02:51;;;;;;;;;;;;;;;8.67;88.24;99966.47;5051591;28;19928;-66
2023/04/22 05:05:58;;;;;;;;;;;;;;;8.66;88.28;99965.63;5050297;28;19923;-66
2023/04/22 05:09:19;;;;;;;;;;;;;;;8.59;88.73;99959.91;5063626;28;20392;-66
2023/04/22 05:12:28;;;;;;;;;;;;;;;8.60;89.06;99966.81;5062397;28;19961;-66
2023/04/22 05:15:45;;;;;;;;;;;;;;;8.68;88.46;99979.44;5074971;28;19923;-66
2023/04/22 05:18:58;;;;;;;;;;;;;;;8.67;88.81;99982.13;5062926;28;19923;-66
2023/04/22 05:22:01;;;;;;;;;;;;;;;8.63;88.71;99997.06;5074149;28;19966;-66
2023/04/22 05:25:06;;;;;;;;;;;;;;;8.61;88.96;100005.00;5061382;28;19938;-66
2023/04/22 05:28:09;;;;;;;;;;;;;;;8.64;89.03;100000.53;5061691;28;19923;-66
2023/04/22 05:31:21;;;;;;;;;;;;;;;8.66;88.92;99990.88;5061860;28;19923;-66
2023/04/22 05:34:24;;;;;;;;;;;;;;;8.71;89.05;100001.88;5061738;28;20424;-66
2023/04/22 05:37:30;;;;;;;;;;;;;;;8.67;89.24;100009.00;5061311;28;19923;-66
2023/04/22 05:40:33;;;;;;;;;;;;;;;8.72;89.28;100001.81;5061562;28;19978;-66
2023/04/22 05:43:38;;;;;;;;;;;;;;;8.81;89.13;100005.69;5061330;28;19924;-65
2023/04/22 05:46:49;;;;;;;;;;;;;;;9.04;89.21;100013.13;5061238;28;19922;-65
2023/04/22 05:49:54;;;;;;;;;;;;;;;9.12;88.10;100004.03;5061030;28;19928;-66
2023/04/22 05:53:07;;;;;;;;;;;;;;;9.16;88.02;100003.78;5060246;28;19923;-66
2023/04/22 05:56:11;;;;;;;;;;;;;;;9.23;88.36;99989.47;5050848;28;19935;-65
2023/04/22 05:59:14;;;;;;;;;;;;;;;9.30;88.37;99993.44;5052662;28;20287;-66
2023/04/22 06:02:17;;;;;;;;;;;;;;;9.35;88.27;99998.41;5052418;28;19928;-66
2023/04/22 06:05:21;;;;;;;;;;;;;;;9.32;87.47;99990.75;5051991;28;19943;-65
2023/04/22 06:08:23;;;;;;;;;;;;;;;9.38;87.81;99990.41;5052688;28;20392;-66
2023/04/22 06:11:27;;;;;;;;;;;;;;;9.43;87.33;99988.38;5053281;28;20383;-66
2023/04/22 06:14:30;;;;;;;;;;;;;;;9.52;87.24;99980.03;5052410;28;19971;-66
2023/04/22 06:17:33;;;;;;;;;;;;;;;9.56;86.81;99975.47;5051948;28;19943;-65
2023/04/22 06:20:36;;;;;;;;;;;;;;;9.60;86.74;99981.34;5050707;28;19927;-66
2023/04/22 06:23:39;;;;;;;;;;;;;;;9.61;87.02;99980.44;5052545;28;19946;-66
2023/04/22 06:26:43;;;;;;;;;;;;;;;9.60;87.35;99978.75;5052425;28;20009;-66
2023/04/22 06:29:46;;;;;;;;;;;;;;;9.62;87.79;99966.47;5052229;28;20288;-66
2023/04/22 06:32:54;;;;;;;;;;;;;;;9.65;87.74;99968.88;5052118;28;20026;-66
2023/04/22 06:35:57;;;;;;;;;;;;;;;9.66;88.26;99967.94;5052972;28;19924;-66
2023/04/22 06:39:04;;;;;;;;;;;;;;;9.63;88.43;99968.13;5052148;28;20286;-66
2023/04/22 06:42:26;;;;;;;;;;;;;;;9.67;89.09;99964.44;5053224;28;19927;-66
2023/04/22 06:45:55;;;;;;;;;;;;;;;9.81;89.71;99955.78;5044601;28;19923;-67
2023/04/22 06:49:08;;;;;;;;;;;;;;;9.88;89.40;99957.13;5051844;28;20416;-67
2023/04/22 06:52:40;;;;;;;;;;;;;;;9.98;89.47;99955.63;5051884;28;20399;-66
2023/04/22 06:55:44;;;;;;;;;;;;;;;9.99;90.21;99960.78;5056712;28;19939;-66
2023/04/22 06:58:47;;;;;;;;;;;;;;;10.10;90.49;99948.84;5060280;28;20395;-67
2023/04/22 07:01:50;;;;;;;;;;;;;;;10.19;91.16;99958.75;5060177;28;20289;-66
2023/04/22 07:04:53;;;;;;;;;;;;;;;10.31;91.04;99955.44;5060189;28;20451;-67
2023/04/22 07:07:57;;;;;;;;;;;;;;;10.45;91.34;99952.00;5062682;28;19962;-67
2023/04/22 07:11:01;;;;;;;;;;;;;;;10.51;91.33;99956.84;5064319;28;20403;-67
2023/04/22 07:14:11;;;;;;;;;;;;;;;10.60;90.49;99943.22;5064343;28;19962;-67
2023/04/22 07:17:14;;;;;;;;;;;;;;;10.70;90.16;99944.31;5076661;28;20058;-67
2023/04/22 07:20:17;;;;;;;;;;;;;;;10.81;90.17;99945.44;5076686;28;19927;-69
2023/04/22 07:23:20;;;;;;;;;;;;;;;10.85;90.40;99945.16;5076468;28;19924;-67
2023/04/22 07:26:23;;;;;;;;;;;;;;;10.89;89.73;99936.16;5076487;28;20353;-67
2023/04/22 07:29:26;;;;;;;;;;;;;;;11.01;89.23;99925.84;5076414;28;19924;-66
2023/04/22 07:32:30;;;;;;;;;;;;;;;11.09;89.70;99934.91;5076457;28;19971;-67
2023/04/22 07:35:33;;;;;;;;;;;;;;;11.16;89.52;99930.94;5076336;28;19928;-66
2023/04/22 07:38:36;;;;;;;;;;;;;;;11.29;90.14;99931.00;5076326;28;20070;-67
2023/04/22 07:41:39;;;;;;;;;;;;;;;11.44;90.06;99926.56;5076104;28;20032;-67
2023/04/22 07:44:42;;;;;;;;;;;;;;;11.55;90.12;99925.84;5076249;28;19970;-68
2023/04/22 07:47:46;;;;;;;;;;;;;;;11.67;90.46;99922.41;5076566;28;19965;-68
2023/04/22 07:50:49;;;;;;;;;;;;;;;11.78;89.92;99916.47;5076455;28;19923;-68
2023/04/22 07:53:52;;;;;;;;;;;;;;;11.90;90.55;99922.69;5076062;28;20463;-68
2023/04/22 07:56:57;;;;;;;;;;;;;;;12.01;90.16;99914.97;5075759;28;19926;-68
2023/04/22 08:00:00;;;;;;;;;;;;;;;12.10;90.20;99909.09;5075782;28;19923;-68
2023/04/22 08:03:03;;;;;;;;;;;;;;;12.25;90.74;99902.81;5075799;28;20033;-68
2023/04/22 08:06:07;;;;;;;;;;;;;;;12.41;90.23;99901.72;5075985;28;19955;-68
2023/04/22 08:09:10;;;;;;;;;;;;;;;12.53;89.85;99895.63;5075979;28;20322;-69
2023/04/22 08:12:13;;;;;;;;;;;;;;;12.66;89.59;99893.81;5075731;28;19927;-68
2023/04/22 08:15:17;;;;;;;;;;;;;;;12.80;89.61;99888.41;5076029;28;19969;-69
2023/04/22 08:18:20;;;;;;;;;;;;;;;12.98;89.69;99891.50;5074853;28;19928;-69
2023/04/22 08:21:23;;;;;;;;;;;;;;;13.13;90.17;99884.31;5075470;28;19927;-68
2023/04/22 08:24:27;;;;;;;;;;;;;;;13.27;89.38;99875.44;5075745;28;19923;-67
2023/04/22 08:27:31;;;;;;;;;;;;;;;13.37;88.53;99875.59;5075623;28;20331;-68
2023/04/22 08:30:34;;;;;;;;;;;;;;;13.48;88.23;99873.00;5075515;28;19928;-68
2023/04/22 08:33:40;;;;;;;;;;;;;;;13.58;87.57;99868.75;5075302;28;19924;-68
2023/04/22 08:36:43;;;;;;;;;;;;;;;13.75;88.96;99869.25;5075382;28;20308;-68
2023/04/22 08:39:46;;;;;;;;;;;;;;;13.89;87.51;99867.25;5075340;28;19925;-69
2023/04/22 08:42:51;;;;;;;;;;;;;;;13.96;86.94;99868.47;5075387;28;20300;-68
2023/04/22 08:45:54;;;;;;;;;;;;;;;14.08;87.63;99858.78;5075557;28;19978;-68
2023/04/22 08:49:02;;;;;;;;;;;;;;;14.21;84.49;99855.22;5075127;28;20476;-69
2023/04/22 08:52:05;;;;;;;;;;;;;;;14.29;83.75;99858.06;5075195;28;19923;-70
2023/04/22 08:55:08;;;;;;;;;;;;;;;14.45;71.50;99858.53;5075054;28;19924;-69
2023/04/22 08:58:12;;;;;;;;;;;;;;;14.64;65.52;99847.41;5075118;28;19923;-69
2023/04/22 09:01:16;;;;;;;;;;;;;;;14.78;65.55;99848.97;5074967;28;20403;-69
2023/04/22 09:04:20;;;;;;;;;;;;;;;15.14;62.25;99839.84;5074743;28;19970;-68
2023/04/22 09:07:26;;;;;;;;;;;;;;;15.42;59.00;99840.22;5074778;28;19923;-69
2023/04/22 09:10:30;;;;;;;;;;;;;;;15.59;59.38;99839.63;5075037;28;20350;-70
2023/04/22 09:13:33;;;;;;;;;;;;;;;15.65;60.42;99840.91;5074771;28;19943;-69
2023/04/22 09:16:43;;;;;;;;;;;;;;;15.74;59.75;99824.38;5074932;28;19960;-69
2023/04/22 09:19:56;;;;;;;;;;;;;;;15.85;58.25;99826.06;5074451;28;19939;-70
2023/04/22 09:23:02;;;;;;;;;;;;;;;15.92;56.22;99828.06;5074560;28;19923;-70
2023/04/22 09:26:06;;;;;;;;;;;;;;;16.04;55.80;99831.44;5074570;28;19961;-70
2023/04/22 09:29:13;;;;;;;;;;;;;;;16.19;55.49;99821.38;5074000;28;19942;-69
2023/04/22 09:32:17;;;;;;;;;;;;;;;16.34;54.40;99835.03;5074268;28;19923;-67
2023/04/22 09:35:32;;;;;;;;;;;;;;;16.48;52.79;99847.84;5074357;28;19923;-69
2023/04/22 09:38:35;;;;;;;;;;;;;;;16.47;52.90;99825.91;5074324;28;19966;-67
2023/04/22 09:41:39;;;;;;;;;;;;;;;16.57;52.56;99831.22;5071770;28;20014;-67
2023/04/22 09:44:53;;;;;;;;;;;;;;;16.63;51.70;99829.84;5073053;28;19923;-67
2023/04/22 09:47:58;;;;;;;;;;;;;;;16.69;51.09;99818.75;5074142;28;19923;-67
2023/04/22 09:51:13;;;;;;;;;;;;;;;16.82;51.13;99826.44;5073936;28;20041;-67
2023/04/22 09:54:16;;;;;;;;;;;;;;;16.89;51.97;99831.00;5073863;28;19923;-68
2023/04/22 09:57:20;;;;;;;;;;;;;;;16.99;50.50;99822.28;5052821;28;20004;-68
2023/04/22 10:00:26;;;;;;;;;;;;;;;17.12;50.93;99825.47;5053748;28;19932;-68
2023/04/22 10:03:30;;;;;;;;;;;;;;;17.23;50.95;99820.06;5053926;28;19923;-68
2023/04/22 10:06:33;;;;;;;;;;;;;;;17.24;49.22;99813.78;5054085;28;19923;-69
2023/04/22 10:09:37;;;;;;;;;;;;;;;17.31;49.89;99812.25;5052746;28;19924;-68
2023/04/22 10:12:44;;;;;;;;;;;;;;;17.34;48.56;99792.63;5053627;28;20003;-69
2023/04/22 10:15:49;;;;;;;;;;;;;;;17.44;49.68;99794.28;5053478;28;19931;-68
2023/04/22 10:18:55;;;;;;;;;;;;;;;17.55;50.17;99795.06;5053435;28;19973;-68
2023/04/22 10:22:00;;;;;;;;;;;;;;;17.60;48.58;99795.50;5053391;28;20012;-68
2023/04/22 10:25:03;;;;;;;;;;;;;;;17.63;48.31;99797.84;5053341;28;19923;-68
2023/04/22 10:28:10;;;;;;;;;;;;;;;17.72;48.16;99781.13;5053540;28;19971;-68
2023/04/22 10:31:20;;;;;;;;;;;;;;;17.65;47.36;99783.53;5053042;28;19969;-68
2023/04/22 10:34:23;;;;;;;;;;;;;;;17.57;47.33;99787.84;5053009;28;19973;-68
2023/04/22 10:37:27;;;;;;;;;;;;;;;17.52;48.08;99784.81;5053018;28;20051;-69
2023/04/22 10:40:32;;;;;;;;;;;;;;;17.53;47.19;99784.66;5052572;28;20157;-68
2023/04/22 10:43:42;;;;;;;;;;;;;;;17.64;46.70;99784.50;5051191;28;19923;-68
2023/04/22 10:46:51;;;;;;;;;;;;;;;17.77;46.09;99784.22;5053229;28;19924;-68
2023/04/22 10:50:08;;;;;;;;;;;;;;;17.78;45.77;99785.88;5052738;28;20033;-69
2023/04/22 10:53:42;;;;;;;;;;;;;;;17.91;46.21;99779.44;5052850;28;19923;-68
2023/04/22 10:57:04;;;;;;;;;;;;;;;18.13;46.05;99776.41;5066227;28;19955;-68
2023/04/22 11:00:23;;;;;;;;;;;;;;;18.26;44.80;99778.72;5072919;28;19924;-69
2023/04/22 11:03:28;;;;;;;;;;;;;;;18.33;44.89;99780.59;5072764;28;19942;-68
2023/04/22 11:06:31;;;;;;;;;;;;;;;18.28;44.75;99782.88;5072699;28;19938;-68
2023/04/22 11:09:38;;;;;;;;;;;;;;;18.39;45.48;99773.91;5060574;28;19966;-68
2023/04/22 11:12:42;;;;;;;;;;;;;;;18.57;45.48;99772.13;5071230;28;19959;-68
2023/04/22 11:15:47;;;;;;;;;;;;;;;18.68;46.40;99779.00;5071731;28;20016;-68
2023/04/22 11:18:51;;;;;;;;;;;;;;;18.73;45.44;99779.41;5072434;28;19967;-69
2023/04/22 11:21:54;;;;;;;;;;;;;;;18.75;45.56;99777.44;5072589;28;19931;-69
2023/04/22 11:24:58;;;;;;;;;;;;;;;18.82;45.90;99780.31;5072492;28;20393;-69
2023/04/22 11:28:02;;;;;;;;;;;;;;;18.78;45.90;99768.34;5072556;28;19923;-68
2023/04/22 11:31:06;;;;;;;;;;;;;;;18.87;46.21;99762.16;5072383;28;19922;-69
2023/04/22 11:34:10;;;;;;;;;;;;;;;18.87;45.89;99751.56;5059927;28;20039;-69
2023/04/22 11:37:17;;;;;;;;;;;;;;;18.97;46.08;99754.94;5072456;28;20342;-68
2023/04/22 11:40:24;;;;;;;;;;;;;;;18.96;46.57;99750.66;5071892;28;20009;-70
2023/04/22 11:43:27;;;;;;;;;;;;;;;19.04;46.69;99753.34;5072492;28;19924;-69
2023/04/22 11:46:37;;;;;;;;;;;;;;;19.03;47.15;99750.88;5072241;28;19962;-67
2023/04/22 11:49:41;;;;;;;;;;;;;;;19.13;47.22;99743.66;5060191;28;19923;-68
2023/04/22 11:52:44;;;;;;;;;;;;;;;19.20;47.28;99762.41;5072435;28;19923;-69
2023/04/22 11:55:52;;;;;;;;;;;;;;;19.26;47.39;99746.72;5075846;28;19927;-69
2023/04/22 11:58:55;;;;;;;;;;;;;;;19.31;46.73;99753.41;5075739;28;19969;-69
2023/04/22 12:01:59;;;;;;;;;;;;;;;19.36;46.58;99757.22;5075509;28;20430;-69
2023/04/22 12:05:03;;;;;;;;;;;;;;;19.47;46.13;99753.50;5075731;28;19927;-69
2023/04/22 12:08:17;;;;;;;;;;;;;;;19.63;46.06;99744.81;5075569;28;19970;-69
2023/04/22 12:11:21;;;;;;;;;;;;;;;19.79;46.49;99752.06;5075802;28;20327;-69
2023/04/22 12:14:31;;;;;;;;;;;;;;;19.97;45.98;99728.91;5075461;28;20109;-69
2023/04/22 12:17:35;;;;;;;;;;;;;;;20.01;45.36;99735.56;5075660;28;19961;-70
2023/04/22 12:20:41;;;;;;;;;;;;;;;20.25;44.91;99736.63;5075335;28;19927;-70
2023/04/22 12:23:54;;;;;;;;;;;;;;;20.30;44.78;99739.66;5075221;28;20403;-70
2023/04/22 12:26:57;;;;;;;;;;;;;;;20.36;45.44;99746.97;5075878;28;19922;-70
2023/04/22 12:30:01;;;;;;;;;;;;;;;20.27;45.13;99743.44;5075573;28;19923;-70
2023/04/22 12:33:05;;;;;;;;;;;;;;;20.13;45.32;99749.34;5074811;28;20391;-70
2023/04/22 12:36:08;;;;;;;;;;;;;;;20.13;45.43;99747.56;5074548;28;19924;-70
2023/04/22 12:39:11;;;;;;;;;;;;;;;20.04;45.77;99739.69;5073113;28;20403;-70
2023/04/22 12:42:14;;;;;;;;;;;;;;;19.83;45.74;99738.31;5074381;28;19928;-70
2023/04/22 12:45:18;;;;;;;;;;;;;;;19.65;45.41;99741.03;5074952;28;20018;-70
2023/04/22 12:48:20;;;;;;;;;;;;;;;19.64;46.49;99744.66;5062329;28;19962;-71
2023/04/22 12:51:23;;;;;;;;;;;;;;;19.48;46.31;99740.06;5075084;28;19931;-70
2023/04/22 12:54:26;;;;;;;;;;;;;;;19.32;45.87;99747.94;5074860;28;19924;-71
2023/04/22 12:57:29;;;;;;;;;;;;;;;19.21;44.82;99748.19;5061149;28;19999;-70
2023/04/22 13:00:32;;;;;;;;;;;;;;;19.13;45.25;99750.78;5074903;28;19928;-70
2023/04/22 13:03:36;;;;;;;;;;;;;;;19.08;44.41;99743.31;5074492;28;19969;-70
2023/04/22 13:06:40;;;;;;;;;;;;;;;19.04;44.71;99740.09;5073691;28;19943;-70
2023/04/22 13:09:43;;;;;;;;;;;;;;;19.04;43.83;99739.28;5061538;28;19943;-70
2023/04/22 13:12:46;;;;;;;;;;;;;;;19.04;44.52;99741.91;5073925;28;20012;-70
2023/04/22 13:15:52;;;;;;;;;;;;;;;19.00;44.43;99745.88;5074472;28;19958;-70
2023/04/22 13:18:56;;;;;;;;;;;;;;;18.87;44.48;99748.09;5074590;28;20012;-70
2023/04/22 13:21:59;;;;;;;;;;;;;;;18.85;44.70;99748.22;5073309;28;19928;-70
2023/04/22 13:25:06;;;;;;;;;;;;;;;18.80;45.12;99751.34;5072356;28;19923;-70
2023/04/22 13:28:10;;;;;;;;;;;;;;;18.74;45.22;99744.00;5072738;28;19923;-70
2023/04/22 13:31:13;;;;;;;;;;;;;;;18.73;45.61;99749.44;5074192;28;20021;-70
2023/04/22 13:34:17;;;;;;;;;;;;;;;18.65;45.17;99750.16;5073147;28;19971;-70
2023/04/22 13:37:21;;;;;;;;;;;;;;;18.61;48.15;99746.16;5073347;28;20300;-69
2023/04/22 13:40:26;;;;;;;;;;;;;;;18.57;47.80;99748.28;5073862;28;19974;-69
2023/04/22 13:43:29;;;;;;;;;;;;;;;18.53;46.80;99748.72;5074068;28;19970;-69
2023/04/22 13:46:32;;;;;;;;;;;;;;;18.50;46.94;99754.31;5074176;28;19923;-69
2023/04/22 13:49:36;;;;;;;;;;;;;;;18.43;47.06;99745.31;5073693;28;20335;-69
2023/04/22 13:52:40;;;;;;;;;;;;;;;18.43;46.38;99747.97;5073876;28;19962;-69
2023/04/22 13:55:43;;;;;;;;;;;;;;;18.45;48.87;99762.72;5073521;28;19962;-69
2023/04/22 13:58:47;;;;;;;;;;;;;;;18.43;49.55;99759.38;5073568;28;20401;-70
2023/04/22 14:01:53;;;;;;;;;;;;;;;18.35;50.88;99762.78;5073235;28;20406;-70
2023/04/22 14:04:58;;;;;;;;;;;;;;;18.28;52.72;99761.72;5073322;28;19967;-69
2023/04/22 14:08:04;;;;;;;;;;;;;;;18.15;49.79;99757.72;5072551;28;20212;-70
2023/04/22 14:11:07;;;;;;;;;;;;;;;18.08;48.43;99762.78;5073321;28;19923;-70
2023/04/22 14:14:11;;;;;;;;;;;;;;;18.04;48.24;99758.78;5073401;28;19924;-70
2023/04/22 14:17:19;;;;;;;;;;;;;;;18.07;48.99;99755.84;5073092;28;19923;-70
2023/04/22 14:20:26;;;;;;;;;;;;;;;18.08;49.59;99760.97;5073376;28;20024;-70
2023/04/22 14:23:30;;;;;;;;;;;;;;;18.18;49.64;99762.72;5071608;28;19971;-70
2023/04/22 14:26:33;;;;;;;;;;;;;;;18.14;49.73;99759.56;5072003;28;19981;-70
2023/04/22 14:29:37;;;;;;;;;;;;;;;18.15;49.26;99761.19;5072425;28;19923;-71
2023/04/22 14:32:40;;;;;;;;;;;;;;;18.14;49.08;99759.56;5072859;28;19939;-71
2023/04/22 14:35:45;;;;;;;;;;;;;;;18.15;49.70;99769.13;5072533;28;19962;-71
2023/04/22 14:38:49;;;;;;;;;;;;;;;18.12;49.80;99766.78;5071399;28;20099;-69
2023/04/22 14:41:52;;;;;;;;;;;;;;;18.10;49.92;99776.72;5060070;28;19966;-70
2023/04/22 14:44:56;;;;;;;;;;;;;;;18.04;49.91;99770.19;5073191;28;19923;-70
2023/04/22 14:47:59;;;;;;;;;;;;;;;17.96;50.39;99769.25;5072906;28;20296;-69
2023/04/22 14:51:02;;;;;;;;;;;;;;;17.96;50.40;99766.59;5072480;28;20008;-69
2023/04/22 14:54:06;;;;;;;;;;;;;;;17.96;50.88;99766.59;5072606;28;19962;-70
2023/04/22 14:57:09;;;;;;;;;;;;;;;17.97;51.93;99768.28;5072520;28;19973;-69
2023/04/22 15:00:13;;;;;;;;;;;;;;;17.91;52.25;99766.22;5060304;28;19923;-70
2023/04/22 15:03:17;;;;;;;;;;;;;;;17.91;52.04;99761.75;5072532;28;20011;-70
2023/04/22 15:06:21;;;;;;;;;;;;;;;17.91;54.36;99764.41;5060008;28;19924;-70
2023/04/22 15:09:24;;;;;;;;;;;;;;;17.87;54.58;99761.22;5072518;28;19927;-70
2023/04/22 15:12:28;;;;;;;;;;;;;;;17.83;53.22;99767.75;5072756;28;20057;-70
2023/04/22 15:15:31;;;;;;;;;;;;;;;17.71;51.61;99763.63;5060497;28;20373;-69
2023/04/22 15:18:34;;;;;;;;;;;;;;;17.68;51.16;99766.53;5072539;28;19977;-70
2023/04/22 15:21:38;;;;;;;;;;;;;;;17.67;50.99;99762.22;5072598;28;20608;-70
2023/04/22 15:24:41;;;;;;;;;;;;;;;17.67;51.13;99763.03;5060200;28;19970;-71
2023/04/22 15:27:44;;;;;;;;;;;;;;;17.65;51.08;99764.19;5072511;28;20014;-68
2023/04/22 15:30:48;;;;;;;;;;;;;;;17.71;51.44;99758.31;5076342;28;19924;-69
2023/04/22 15:33:51;;;;;;;;;;;;;;;17.70;51.35;99755.81;5076383;28;19923;-69
2023/04/22 15:36:55;;;;;;;;;;;;;;;17.67;51.69;99763.03;5076019;28;20430;-69
2023/04/22 15:39:58;;;;;;;;;;;;;;;17.65;51.71;99757.09;5075968;28;20333;-70
2023/04/22 15:43:00;;;;;;;;;;;;;;;17.67;51.39;99756.94;5076013;28;19946;-70
2023/04/22 15:46:32;;;;;;;;;;;;;;;17.76;51.80;99756.06;5075978;28;19935;-69
2023/04/22 15:49:36;;;;;;;;;;;;;;;17.80;51.44;99749.53;5076026;28;20399;-71
2023/04/22 15:52:39;;;;;;;;;;;;;;;17.91;51.78;99753.81;5075738;28;19982;-69
2023/04/22 15:55:42;;;;;;;;;;;;;;;17.92;51.67;99749.34;5075571;28;19928;-69
2023/04/22 15:58:45;;;;;;;;;;;;;;;17.91;51.47;99742.41;5075775;28;19982;-69
2023/04/22 16:01:48;;;;;;;;;;;;;;;17.93;51.64;99741.25;5075603;28;19927;-69
2023/04/22 16:04:51;;;;;;;;;;;;;;;17.96;51.43;99746.25;5075765;28;19959;-69
2023/04/22 16:07:55;;;;;;;;;;;;;;;18.05;51.65;99742.75;5075856;28;20292;-69
2023/04/22 16:10:58;;;;;;;;;;;;;;;18.10;51.53;99739.66;5076283;28;19923;-70
2023/04/22 16:14:01;;;;;;;;;;;;;;;17.94;52.05;99750.06;5075966;28;19962;-69